Etusivu
METAR-TAF:

METAR-TAF

Lentoasemat :

Scammon Bay, Alaska, Yhdysvallat

Leveyspiiri: 61-50-43N, Pituuspiiri: 165-34-17W, korkeus merenpinnasta: 4 m

Tämänhetkinen sää

Tämä raportti tehtiin 19 minuuttia sitten, kello 11.36 UTC
Tuuli 6 kn idästä
Lämpötila 9°C
Kosteus 93%
Ilmanpaine 1004 hPa
Näkyvyys: 16.1 km
Muutamia pilviä 1700 ft:n korkeudessa
Hajonneita pilviä 3600 ft:n korkeudessa
Pilvistä 6000 ft:n korkeudessa
heikkoa sadetta

METAR: PACM 121136Z AUTO 09006KT 10SM -RA FEW017 BKN036 OVC060 09/08 A2965 RMK AO2 P0006

Aika: 03:55 (11:55 UTC)


TAF: puuttuu

Säähavainnot ja -ennusteet yli 4000 lentoasemalta (METAR- ja TAF-raportit).

Käytössä olevat sääasemat on merkitty karttaan keltaisilla ja punaisilla pisteillä.

Aseta hiiri pisteen päälle nähdäksesi sääaseman nimen.

Klikkaa sitten nähdäksesi säähavainnot ja -ennusteet.

Kartan vaihtaminen: klikkaa mustalla rastilla varustettuja vihreitä pisteitä, niin voit zoomata sisään; viivalla varustettua vihreää pistettä, niin voit zoomata ulos tai vihreitä nuolia, niin pääset viereisille kartoille.


METAR-TAF: